createdAt,value
2018-02-17T00:02:17.899Z,5.57
2018-02-17T00:04:45.490Z,7.53
2018-02-17T00:07:13.074Z,6.17
2018-02-17T00:09:40.558Z,6.57
2018-02-17T00:12:08.010Z,6.10
2018-02-17T00:14:35.550Z,8.37
2018-02-17T00:17:03.198Z,5.20
2018-02-17T00:19:30.967Z,9.10
2018-02-17T00:21:58.733Z,7.10
2018-02-17T00:24:26.243Z,4.53
2018-02-17T00:26:53.828Z,7.40
2018-02-17T00:29:21.333Z,7.63
2018-02-17T00:31:48.794Z,9.70
2018-02-17T00:34:16.253Z,5.10
2018-02-17T00:36:43.713Z,7.87
2018-02-17T00:39:11.262Z,2.97
2018-02-17T00:41:38.722Z,6.70
2018-02-17T00:44:06.368Z,6.47
2018-02-17T00:46:33.951Z,5.03
2018-02-17T00:49:01.587Z,3.17
2018-02-17T00:51:29.067Z,6.63
2018-02-17T00:53:56.532Z,4.63
2018-02-17T00:56:23.993Z,5.50
2018-02-17T00:58:52.218Z,6.40
2018-02-17T01:01:19.798Z,8.77
2018-02-17T01:03:47.253Z,5.13
2018-02-17T01:06:14.850Z,5.60
2018-02-17T01:08:42.303Z,7.53
2018-02-17T01:11:10.082Z,4.83
2018-02-17T01:13:37.538Z,7.10
2018-02-17T01:16:04.997Z,5.37
2018-02-17T01:18:32.626Z,5.00
2018-02-17T01:21:00.088Z,4.53
2018-02-17T01:23:27.680Z,6.23
2018-02-17T01:25:55.341Z,6.00
2018-02-17T01:28:22.786Z,5.87
2018-02-17T01:30:50.293Z,4.87
2018-02-17T01:33:17.826Z,7.53
2018-02-17T01:35:45.600Z,5.93
2018-02-17T01:38:13.173Z,5.40
2018-02-17T01:40:41.397Z,5.50
2018-02-17T01:43:09.162Z,5.47
2018-02-17T01:45:36.619Z,5.30
2018-02-17T01:48:04.067Z,5.00
2018-02-17T01:50:33.339Z,7.33
2018-02-17T01:53:02.161Z,4.77
2018-02-17T01:55:29.624Z,6.03
2018-02-17T01:57:57.117Z,4.17
2018-02-17T02:00:24.741Z,4.73
2018-02-17T02:02:52.203Z,7.10
2018-02-17T02:05:19.709Z,4.27
2018-02-17T02:07:47.488Z,3.57
2018-02-17T02:10:15.432Z,3.53
2018-02-17T02:12:42.914Z,4.70
2018-02-17T02:15:10.357Z,4.83
2018-02-17T02:17:37.821Z,4.07
2018-02-17T02:20:05.266Z,5.43
2018-02-17T02:22:32.821Z,6.17
2018-02-17T02:25:00.464Z,3.13
2018-02-17T02:27:28.042Z,4.57
2018-02-17T02:29:55.671Z,4.13
2018-02-17T02:32:23.146Z,5.43
2018-02-17T02:34:50.598Z,4.70
2018-02-17T02:37:18.090Z,3.40
2018-02-17T02:39:45.534Z,4.03
2018-02-17T02:42:13.026Z,5.43
2018-02-17T02:44:40.480Z,3.93
2018-02-17T02:47:07.930Z,4.20
2018-02-17T02:49:35.377Z,3.83
2018-02-17T02:52:02.881Z,5.40
2018-02-17T02:54:30.334Z,4.40
2018-02-17T02:56:57.856Z,7.87
2018-02-17T02:59:25.310Z,4.07
2018-02-17T03:01:52.770Z,5.53
2018-02-17T03:04:20.230Z,5.13
2018-02-17T03:06:47.973Z,6.97
2018-02-17T03:09:15.616Z,10.27
2018-02-17T03:11:43.086Z,4.57
2018-02-17T03:14:10.672Z,4.90
2018-02-17T03:16:38.133Z,4.90
2018-02-17T03:19:05.690Z,4.33
2018-02-17T03:21:33.145Z,4.27
2018-02-17T03:24:00.602Z,3.87
2018-02-17T03:26:28.133Z,3.13
2018-02-17T03:28:55.593Z,7.83
2018-02-17T03:31:23.191Z,3.47
2018-02-17T03:33:50.842Z,4.40
2018-02-17T03:36:18.292Z,5.23
2018-02-17T03:38:45.873Z,2.87
2018-02-17T03:41:13.493Z,2.73
2018-02-17T03:43:40.956Z,5.37
2018-02-17T03:46:08.538Z,4.40
2018-02-17T03:48:36.184Z,3.57
2018-02-17T03:51:03.665Z,6.93
2018-02-17T03:53:31.121Z,4.30
2018-02-17T03:55:58.685Z,3.37
2018-02-17T03:58:26.441Z,2.83
2018-02-17T04:00:54.002Z,3.10
2018-02-17T04:03:21.662Z,4.50
2018-02-17T04:05:49.204Z,2.50
2018-02-17T04:08:16.799Z,4.43
2018-02-17T04:10:44.246Z,3.60
2018-02-17T04:13:11.810Z,4.97
2018-02-17T04:15:39.266Z,3.13
2018-02-17T04:18:06.723Z,4.93
2018-02-17T04:20:34.345Z,5.70
2018-02-17T04:23:01.882Z,3.50
2018-02-17T04:25:29.341Z,3.53
2018-02-17T04:27:56.787Z,4.10
2018-02-17T04:30:24.240Z,2.77
2018-02-17T04:32:51.767Z,2.60
2018-02-17T04:35:19.525Z,4.40
2018-02-17T04:37:47.165Z,2.97
2018-02-17T04:40:25.289Z,3.40
2018-02-17T04:46:13.329Z,5.90
2018-02-17T04:48:46.540Z,4.20
2018-02-17T04:51:17.541Z,4.13
2018-02-17T04:53:51.458Z,4.60
2018-02-17T04:56:24.639Z,3.20
2018-02-17T04:58:58.029Z,3.90
2018-02-17T05:01:27.692Z,3.80
2018-02-17T05:03:55.701Z,3.30
2018-02-17T05:06:23.930Z,2.63
2018-02-17T05:08:55.589Z,3.10
2018-02-17T05:11:23.046Z,3.10
2018-02-17T05:13:50.488Z,4.63
2018-02-17T05:16:18.776Z,4.10
2018-02-17T05:19:01.122Z,2.67
2018-02-17T05:21:33.197Z,3.47
2018-02-17T05:24:01.616Z,3.17
2018-02-17T05:26:43.890Z,2.57
2018-02-17T05:29:18.037Z,3.57
2018-02-17T05:31:47.383Z,4.47
2018-02-17T05:34:25.728Z,2.90
2018-02-17T05:36:55.782Z,4.90
2018-02-17T05:39:26.009Z,6.60
2018-02-17T05:41:55.880Z,5.17
2018-02-17T05:47:40.829Z,2.37
2018-02-17T05:50:10.848Z,5.40
2018-02-17T05:52:38.480Z,2.90
2018-02-17T05:55:05.970Z,3.00
2018-02-17T05:57:33.427Z,2.90
2018-02-17T06:00:00.869Z,3.13
2018-02-17T06:02:28.362Z,2.67
2018-02-17T06:04:55.797Z,5.77
2018-02-17T06:07:23.276Z,2.13
2018-02-17T06:09:50.820Z,3.13
2018-02-17T06:12:18.272Z,3.13
2018-02-17T06:14:45.900Z,5.73
2018-02-17T06:17:13.506Z,4.40
2018-02-17T06:19:40.945Z,2.20
2018-02-17T06:22:08.713Z,4.23
2018-02-17T06:24:36.344Z,3.63
2018-02-17T06:27:03.824Z,2.40
2018-02-17T06:29:31.281Z,2.67
2018-02-17T06:31:58.764Z,2.83
2018-02-17T06:34:26.217Z,2.60
2018-02-17T06:36:53.672Z,5.03
2018-02-17T06:39:21.121Z,4.43
2018-02-17T06:41:48.593Z,2.30
2018-02-17T06:44:16.048Z,7.50
2018-02-17T06:46:43.593Z,2.80
2018-02-17T06:49:11.229Z,4.37
2018-02-17T06:51:38.817Z,4.43
2018-02-17T06:54:06.457Z,4.03
2018-02-17T06:56:33.916Z,3.43
2018-02-17T06:59:01.514Z,2.63
2018-02-17T07:01:28.961Z,3.03
2018-02-17T07:03:56.425Z,3.17
2018-02-17T07:06:24.180Z,3.50
2018-02-17T07:08:51.634Z,3.77
2018-02-17T07:11:19.097Z,4.17
2018-02-17T07:13:46.602Z,3.07
2018-02-17T07:16:14.319Z,3.50
2018-02-17T07:18:42.085Z,4.23
2018-02-17T07:21:09.546Z,4.10
2018-02-17T07:23:37.181Z,6.10
2018-02-17T07:26:04.769Z,8.20
2018-02-17T07:28:33.945Z,3.57
2018-02-17T07:31:01.390Z,4.03
2018-02-17T07:33:28.864Z,7.83
2018-02-17T07:35:56.345Z,2.47
2018-02-17T07:38:23.891Z,3.33
2018-02-17T07:40:51.542Z,5.80
2018-02-17T07:43:19.030Z,3.43
2018-02-17T07:45:46.492Z,5.13
2018-02-17T07:48:13.940Z,4.93
2018-02-17T07:50:41.417Z,4.70
2018-02-17T07:53:08.893Z,5.40
2018-02-17T07:55:36.408Z,5.43
2018-02-17T07:58:03.970Z,3.30
2018-02-17T08:00:31.433Z,5.30
2018-02-17T08:02:58.898Z,5.00
2018-02-17T08:05:26.413Z,3.50
2018-02-17T08:07:53.905Z,3.57
2018-02-17T08:10:22.189Z,5.57
2018-02-17T08:12:49.837Z,17.87
2018-02-17T08:15:17.480Z,11.23
2018-02-17T08:17:45.061Z,16.97
2018-02-17T08:20:12.824Z,9.60
2018-02-17T08:22:40.596Z,12.87
2018-02-17T08:25:08.054Z,11.80
2018-02-17T08:27:35.511Z,10.73
2018-02-17T08:30:02.964Z,9.70
2018-02-17T08:32:30.751Z,20.95
2018-02-17T08:34:58.378Z,8.50
2018-02-17T08:37:25.965Z,16.80
2018-02-17T08:39:53.598Z,10.63
2018-02-17T08:42:21.105Z,14.63
2018-02-17T08:44:48.566Z,9.87
2018-02-17T08:47:16.417Z,9.50
2018-02-17T08:49:44.174Z,5.47
2018-02-17T08:52:13.796Z,10.43
2018-02-17T08:54:41.548Z,5.93
2018-02-17T08:57:09.181Z,9.50
2018-02-17T08:59:36.769Z,7.03
2018-02-17T09:02:05.028Z,9.67
2018-02-17T09:04:32.478Z,6.33
2018-02-17T09:06:59.999Z,5.30
2018-02-17T09:09:27.469Z,7.97
2018-02-17T09:11:54.936Z,9.03
2018-02-17T09:14:22.378Z,6.40
2018-02-17T09:16:49.832Z,9.77
2018-02-17T09:19:17.304Z,17.53
2018-02-17T09:21:44.826Z,10.00
2018-02-17T09:24:12.610Z,7.30
2018-02-17T09:26:40.248Z,7.83
2018-02-17T09:29:08.640Z,13.07
2018-02-17T09:31:36.111Z,9.50
2018-02-17T09:34:03.566Z,11.63
2018-02-17T09:36:31.156Z,8.20
2018-02-17T09:38:58.865Z,8.47
2018-02-17T09:41:26.534Z,9.57
2018-02-17T09:43:54.007Z,12.87
2018-02-17T09:46:21.479Z,9.30
2018-02-17T09:48:49.009Z,10.63
2018-02-17T09:51:16.785Z,6.87
2018-02-17T09:53:44.539Z,8.47
2018-02-17T09:56:12.001Z,8.20
2018-02-17T09:58:43.162Z,14.93
2018-02-17T10:01:10.904Z,11.80
2018-02-17T10:03:38.396Z,9.30
2018-02-17T10:06:05.844Z,10.00
2018-02-17T10:08:33.493Z,9.43
2018-02-17T10:11:02.028Z,11.77
2018-02-17T10:13:30.252Z,22.37
2018-02-17T10:15:58.959Z,13.80
2018-02-17T10:18:29.184Z,16.43
2018-02-17T10:20:59.025Z,9.63
2018-02-17T10:23:28.413Z,16.73
2018-02-17T10:25:55.858Z,14.37
2018-02-17T10:28:23.318Z,16.63
2018-02-17T10:30:50.877Z,12.20
2018-02-17T10:33:18.585Z,12.17
2018-02-17T10:35:46.074Z,11.77
2018-02-17T10:38:13.558Z,22.70
2018-02-17T10:40:41.012Z,17.23
2018-02-17T10:43:08.613Z,14.87
2018-02-17T10:45:36.145Z,14.07
2018-02-17T10:48:03.668Z,12.40
2018-02-17T10:50:31.116Z,13.57
2018-02-17T10:52:58.858Z,11.73
2018-02-17T10:55:31.969Z,6.30
2018-02-17T10:57:59.556Z,9.40
2018-02-17T11:00:27.114Z,9.67
2018-02-17T11:02:54.853Z,8.70
2018-02-17T11:05:22.442Z,9.63
2018-02-17T11:07:50.692Z,9.90
2018-02-17T11:10:18.317Z,8.40
2018-02-17T11:12:45.789Z,11.57
2018-02-17T11:15:13.379Z,7.90
2018-02-17T11:17:41.061Z,6.53
2018-02-17T11:20:08.604Z,13.93
2018-02-17T11:22:36.238Z,10.37
2018-02-17T11:25:03.686Z,8.00
2018-02-17T11:27:31.181Z,6.20
2018-02-17T11:29:58.726Z,6.30
2018-02-17T11:32:26.161Z,6.43
2018-02-17T11:34:53.617Z,7.60
2018-02-17T11:37:21.077Z,7.67
2018-02-17T11:39:48.581Z,10.20
2018-02-17T11:42:16.196Z,15.03
2018-02-17T11:44:43.736Z,11.83
2018-02-17T11:47:11.266Z,10.67
2018-02-17T11:49:38.741Z,7.03
2018-02-17T11:52:06.359Z,6.40
2018-02-17T11:54:33.918Z,7.30
2018-02-17T11:57:01.697Z,5.97
2018-02-17T11:59:29.282Z,10.87
2018-02-17T12:01:56.711Z,6.83
2018-02-17T12:04:24.161Z,6.60
2018-02-17T12:06:51.829Z,9.30
2018-02-17T12:09:19.635Z,8.00
2018-02-17T12:11:47.382Z,5.90
2018-02-17T12:14:14.949Z,6.30
2018-02-17T12:16:42.462Z,9.80
2018-02-17T12:19:09.951Z,6.50
2018-02-17T12:21:37.406Z,5.87
2018-02-17T12:24:04.880Z,5.57
2018-02-17T12:26:32.440Z,10.53
2018-02-17T12:29:00.062Z,5.13
2018-02-17T12:31:27.529Z,7.70
2018-02-17T12:33:55.022Z,5.70
2018-02-17T12:36:22.468Z,7.17
2018-02-17T12:38:50.013Z,6.07
2018-02-17T12:41:17.472Z,7.70
2018-02-17T12:43:44.942Z,12.37
2018-02-17T12:46:12.621Z,10.87
2018-02-17T12:48:40.153Z,5.33
2018-02-17T12:51:07.921Z,6.87
2018-02-17T12:53:35.550Z,8.77
2018-02-17T12:56:03.045Z,6.67
2018-02-17T12:58:30.642Z,11.73
2018-02-17T13:00:58.109Z,13.70
2018-02-17T13:03:25.570Z,11.00
2018-02-17T13:05:53.296Z,7.83
2018-02-17T13:08:20.757Z,7.40
2018-02-17T13:10:48.506Z,6.80
2018-02-17T13:13:15.954Z,7.57
2018-02-17T13:15:43.417Z,6.37
2018-02-17T13:18:10.980Z,8.63
2018-02-17T13:20:38.658Z,8.67
2018-02-17T13:23:06.109Z,8.77
2018-02-17T13:25:33.567Z,5.70
2018-02-17T13:28:01.297Z,6.37
2018-02-17T13:30:28.765Z,8.77
2018-02-17T13:32:56.237Z,5.23
2018-02-17T13:35:23.689Z,5.07
2018-02-17T13:37:51.161Z,8.20
2018-02-17T13:40:18.617Z,5.90
2018-02-17T13:42:46.246Z,5.03
2018-02-17T13:45:13.844Z,6.57
2018-02-17T13:47:41.600Z,9.80
2018-02-17T13:50:09.342Z,6.77
2018-02-17T13:52:36.841Z,5.97
2018-02-17T13:55:04.503Z,9.53
2018-02-17T13:57:31.974Z,5.57
2018-02-17T13:59:59.425Z,7.53
2018-02-17T14:02:26.900Z,8.13
2018-02-17T14:04:54.341Z,20.30
2018-02-17T14:07:21.843Z,27.83
2018-02-17T14:09:49.333Z,11.63
2018-02-17T14:12:16.837Z,16.43
2018-02-17T14:14:44.446Z,15.43
2018-02-17T14:17:11.906Z,12.50
2018-02-17T14:19:39.377Z,15.60
2018-02-17T14:22:06.954Z,10.47
2018-02-17T14:24:34.602Z,17.27
2018-02-17T14:27:02.077Z,10.77
2018-02-17T14:29:29.619Z,12.30
2018-02-17T14:31:57.262Z,11.27
2018-02-17T14:34:24.741Z,15.47
2018-02-17T14:36:52.205Z,13.97
2018-02-17T14:39:19.674Z,18.17
2018-02-17T14:41:47.217Z,14.63
2018-02-17T14:44:14.992Z,16.57
2018-02-17T14:46:42.616Z,13.40
2018-02-17T14:49:10.141Z,8.60
2018-02-17T14:51:37.594Z,13.33
2018-02-17T14:54:05.114Z,20.03
2018-02-17T14:56:32.566Z,11.87
2018-02-17T14:59:00.217Z,9.43
2018-02-17T15:01:27.664Z,9.13
2018-02-17T15:03:55.147Z,12.23
2018-02-17T15:06:22.715Z,12.20
2018-02-17T15:08:50.362Z,11.63
2018-02-17T15:11:17.860Z,10.23
2018-02-17T15:13:45.401Z,11.50
2018-02-17T15:16:13.167Z,11.63
2018-02-17T15:18:40.935Z,13.30
2018-02-17T15:21:08.406Z,11.17
2018-02-17T15:23:35.875Z,12.03
2018-02-17T15:26:03.505Z,11.67
2018-02-17T15:28:30.969Z,17.57
2018-02-17T15:30:58.516Z,7.10
2018-02-17T15:33:25.973Z,8.80
2018-02-17T15:35:53.428Z,11.50
2018-02-17T15:38:20.927Z,9.40
2018-02-17T15:40:48.353Z,6.10
2018-02-17T15:43:15.802Z,6.53
2018-02-17T15:45:43.574Z,11.50
2018-02-17T15:48:11.141Z,7.17
2018-02-17T15:50:38.676Z,8.30
2018-02-17T15:53:06.266Z,5.77
2018-02-17T15:55:33.750Z,7.10
2018-02-17T15:58:01.490Z,8.87
2018-02-17T16:00:29.289Z,8.33
2018-02-17T16:02:56.741Z,6.50
2018-02-17T16:05:24.860Z,4.77
2018-02-17T16:07:52.315Z,7.37
2018-02-17T16:10:19.789Z,7.77
2018-02-17T16:12:47.334Z,7.37
2018-02-17T16:15:14.929Z,8.37
2018-02-17T16:17:42.566Z,5.10
2018-02-17T16:20:10.042Z,7.13
2018-02-17T16:22:37.678Z,7.73
2018-02-17T16:25:05.368Z,6.97
2018-02-17T16:27:32.825Z,4.33
2018-02-17T16:30:00.463Z,5.30
2018-02-17T16:32:27.954Z,8.67
2018-02-17T16:34:55.413Z,7.90
2018-02-17T16:37:22.877Z,5.20
2018-02-17T16:39:51.337Z,6.00
2018-02-17T16:42:19.101Z,5.40
2018-02-17T16:44:46.745Z,5.13
2018-02-17T16:47:14.238Z,6.43
2018-02-17T16:49:41.784Z,6.40
2018-02-17T16:52:09.255Z,7.43
2018-02-17T16:54:36.923Z,6.50
2018-02-17T16:57:04.393Z,4.50
2018-02-17T16:59:31.848Z,4.87
2018-02-17T17:01:59.332Z,5.73
2018-02-17T17:04:26.870Z,5.83
2018-02-17T17:06:54.349Z,4.83
2018-02-17T17:09:22.075Z,8.93
2018-02-17T17:11:49.540Z,6.97
2018-02-17T17:14:16.994Z,4.37
2018-02-17T17:16:45.257Z,5.23
2018-02-17T17:19:12.781Z,5.03
2018-02-17T17:21:40.468Z,4.93
2018-02-17T17:24:07.929Z,4.67
2018-02-17T17:26:35.389Z,7.03
2018-02-17T17:29:03.280Z,5.23
2018-02-17T17:31:30.898Z,4.63
2018-02-17T17:33:58.374Z,6.57
2018-02-17T17:36:25.820Z,4.37
2018-02-17T17:38:53.397Z,4.20
2018-02-17T17:41:21.025Z,4.80
2018-02-17T17:43:48.485Z,5.40
2018-02-17T17:46:16.001Z,7.50
2018-02-17T17:48:44.375Z,6.73
2018-02-17T17:51:11.919Z,5.03
2018-02-17T17:53:39.715Z,8.87
2018-02-17T17:56:07.378Z,7.63
2018-02-17T17:58:34.905Z,6.27
2018-02-17T18:01:02.374Z,5.20
2018-02-17T18:03:29.942Z,3.80
2018-02-17T18:05:57.392Z,13.00
2018-02-17T18:08:24.917Z,21.70
2018-02-17T18:10:52.462Z,37.07
2018-02-17T18:13:19.972Z,70.93
2018-02-17T18:15:47.653Z,49.83
2018-02-17T18:18:15.191Z,40.03
2018-02-17T18:20:42.829Z,58.40
2018-02-17T18:23:10.277Z,66.23
2018-02-17T18:25:37.867Z,180.73
2018-02-17T18:28:05.639Z,35.73
2018-02-17T18:30:33.114Z,33.97
2018-02-17T18:33:00.590Z,25.57
2018-02-17T18:35:28.218Z,30.93
2018-02-17T18:37:55.789Z,23.27
2018-02-17T18:40:23.249Z,22.90
2018-02-17T18:42:51.163Z,21.37
2018-02-17T18:45:18.664Z,27.27
2018-02-17T18:47:46.146Z,24.37
2018-02-17T18:50:13.667Z,23.80
2018-02-17T18:52:41.312Z,17.87
2018-02-17T18:55:08.909Z,18.83
2018-02-17T18:57:36.672Z,18.47
2018-02-17T19:00:04.187Z,19.77
2018-02-17T19:02:31.811Z,16.70
2018-02-17T19:04:59.278Z,18.53
2018-02-17T19:07:26.733Z,19.03
2018-02-17T19:09:54.209Z,16.20
2018-02-17T19:12:21.673Z,16.57
2018-02-17T19:14:49.132Z,13.43
2018-02-17T19:17:16.679Z,19.70
2018-02-17T19:19:44.392Z,24.40
2018-02-17T19:22:11.849Z,18.70
2018-02-17T19:24:39.612Z,17.80
2018-02-17T19:27:07.257Z,20.57
2018-02-17T19:29:34.733Z,17.00
2018-02-17T19:32:02.225Z,22.10
2018-02-17T19:34:29.785Z,20.33
2018-02-17T19:36:57.517Z,14.20
2018-02-17T19:39:25.164Z,19.53
2018-02-17T19:41:52.664Z,14.10
2018-02-17T19:44:20.122Z,17.70
2018-02-17T19:46:47.581Z,13.70
2018-02-17T19:49:15.042Z,17.50
2018-02-17T19:51:42.512Z,16.00
2018-02-17T19:54:10.030Z,14.90
2018-02-17T19:56:37.484Z,15.47
2018-02-17T19:59:05.251Z,17.13
2018-02-17T20:01:32.745Z,12.77
2018-02-17T20:04:00.402Z,14.03
2018-02-17T20:06:27.962Z,15.60
2018-02-17T20:08:55.412Z,13.83
2018-02-17T20:11:23.046Z,14.80
2018-02-17T20:13:50.597Z,11.70
2018-02-17T20:16:18.073Z,13.80
2018-02-17T20:18:45.538Z,12.93
2018-02-17T20:21:13.182Z,15.23
2018-02-17T20:23:40.702Z,11.47
2018-02-17T20:26:08.161Z,12.77
2018-02-17T20:28:35.641Z,13.07
2018-02-17T20:31:03.097Z,15.63
2018-02-17T20:33:30.558Z,15.63
2018-02-17T20:35:58.018Z,11.93
2018-02-17T20:38:25.477Z,12.57
2018-02-17T20:40:52.966Z,12.17
2018-02-17T20:43:20.622Z,14.33
2018-02-17T20:45:48.095Z,12.37
2018-02-17T20:48:16.767Z,16.23
2018-02-17T20:50:44.209Z,10.30
2018-02-17T20:53:11.783Z,10.70
2018-02-17T20:55:39.549Z,8.07
2018-02-17T20:58:07.318Z,10.43
2018-02-17T21:00:34.800Z,11.97
2018-02-17T21:03:02.433Z,9.03
2018-02-17T21:05:29.997Z,15.13
2018-02-17T21:07:57.480Z,11.73
2018-02-17T21:10:25.109Z,14.93
2018-02-17T21:12:52.681Z,9.67
2018-02-17T21:15:20.334Z,10.50
2018-02-17T21:17:47.820Z,15.83
2018-02-17T21:20:15.271Z,14.30
2018-02-17T21:22:43.514Z,9.63
2018-02-17T21:25:10.987Z,9.47
2018-02-17T21:27:38.549Z,10.80
2018-02-17T21:30:06.117Z,10.73
2018-02-17T21:32:33.593Z,9.40
2018-02-17T21:35:01.301Z,9.90
2018-02-17T21:37:28.756Z,7.90
2018-02-17T21:39:56.217Z,9.50
2018-02-17T21:42:23.674Z,7.33
2018-02-17T21:44:51.134Z,10.67
2018-02-17T21:47:18.620Z,10.37
2018-02-17T21:49:46.085Z,12.80
2018-02-17T21:52:13.608Z,10.23
2018-02-17T21:54:41.326Z,9.07
2018-02-17T21:57:08.973Z,8.33
2018-02-17T21:59:36.537Z,11.17
2018-02-17T22:02:03.985Z,8.27
2018-02-17T22:04:31.777Z,7.77
2018-02-17T22:06:59.426Z,8.67
2018-02-17T22:09:26.918Z,9.30
2018-02-17T22:11:54.399Z,7.93
2018-02-17T22:14:21.898Z,9.20
2018-02-17T22:16:49.530Z,10.97
2018-02-17T22:19:17.113Z,7.63
2018-02-17T22:21:44.891Z,9.90
2018-02-17T22:24:12.656Z,8.80
2018-02-17T22:26:40.298Z,7.57
2018-02-17T22:29:07.773Z,7.70
2018-02-17T22:31:35.248Z,8.50
2018-02-17T22:34:02.734Z,7.33
2018-02-17T22:36:30.186Z,8.07
2018-02-17T22:38:57.630Z,8.63
2018-02-17T22:41:25.166Z,7.53
2018-02-17T22:43:52.657Z,8.43
2018-02-17T22:46:20.261Z,7.43
2018-02-17T22:48:47.849Z,7.10
2018-02-17T22:51:15.616Z,7.60
2018-02-17T22:53:43.178Z,8.23
2018-02-17T22:56:10.748Z,11.93
2018-02-17T22:58:38.201Z,9.13
2018-02-17T23:01:05.686Z,12.83
2018-02-17T23:03:33.189Z,15.00
2018-02-17T23:06:00.673Z,13.80
2018-02-17T23:08:28.130Z,10.43
2018-02-17T23:10:55.928Z,11.07
2018-02-17T23:13:23.514Z,11.53
2018-02-17T23:15:51.100Z,10.67
2018-02-17T23:18:18.570Z,11.10
2018-02-17T23:20:46.040Z,11.23
2018-02-17T23:23:13.785Z,11.03
2018-02-17T23:25:41.561Z,10.40
2018-02-17T23:28:09.194Z,11.87
2018-02-17T23:30:36.804Z,11.50
2018-02-17T23:33:04.418Z,10.47
2018-02-17T23:35:31.960Z,9.03
2018-02-17T23:37:59.413Z,9.33
2018-02-17T23:40:27.081Z,9.17
2018-02-17T23:42:54.717Z,10.70
2018-02-17T23:45:22.170Z,11.17
2018-02-17T23:47:49.925Z,14.53
2018-02-17T23:50:17.389Z,10.27
2018-02-17T23:52:45.018Z,11.43
2018-02-17T23:55:12.478Z,10.87
2018-02-17T23:57:39.959Z,10.63
